SAS1642 EKCH-EETN
Flight info
| Callsign | SAS1642 |
|---|---|
| Flight time | N/A |
| Altitude | 35000 |
| Route | KEMAX DCT ROGMI DCT DOLEX DCT OSMUR |
| Aircraft | A320/M-SDE3FGHIRWY/LB1 |
Departure
| Time | 2026-05-05 18:10 |
|---|---|
| Airport | Copenhagen Kastrup Airport (EKCH) |
Arrival
| Time | N/A |
|---|---|
| Airport | Lennart Meri Tallinn Airport (EETN) |
| Time | Latitude | Longitude | Altitude | Speed | Heading |
|---|---|---|---|---|---|
| 2026-05-05 17:49 | 55.62713 | 12.64460 | 26 ft | 0 kts | 102° |
| 2026-05-05 17:59 | 55.62716 | 12.64435 | 24 ft | 4 kts | 99° |
| 2026-05-05 18:00 | 55.62719 | 12.64388 | 25 ft | 4 kts | 83° |
| 2026-05-05 18:00 | 55.62711 | 12.64347 | 24 ft | 4 kts | 39° |
| 2026-05-05 18:00 | 55.62691 | 12.64325 | 25 ft | 4 kts | 24° |
| 2026-05-05 18:00 | 55.62666 | 12.64308 | 26 ft | 4 kts | 20° |
| 2026-05-05 18:01 | 55.62643 | 12.64292 | 28 ft | 4 kts | 28° |
| 2026-05-05 18:01 | 55.62621 | 12.64265 | 28 ft | 4 kts | 48° |
| 2026-05-05 18:01 | 55.62608 | 12.64227 | 25 ft | 4 kts | 78° |
| 2026-05-05 18:01 | 55.62609 | 12.64185 | 24 ft | 4 kts | 114° |
| 2026-05-05 18:02 | 55.62623 | 12.64145 | 27 ft | 4 kts | 126° |
| 2026-05-05 18:02 | 55.62633 | 12.64117 | 26 ft | 0 kts | 121° |
| 2026-05-05 18:04 | 55.62626 | 12.64136 | 26 ft | 6 kts | 123° |
| 2026-05-05 18:04 | 55.62589 | 12.64237 | 24 ft | 14 kts | 123° |
| 2026-05-05 18:04 | 55.62530 | 12.64393 | 24 ft | 16 kts | 123° |
| 2026-05-05 18:05 | 55.62474 | 12.64488 | 24 ft | 11 kts | 175° |
| 2026-05-05 18:05 | 55.62396 | 12.64452 | 24 ft | 12 kts | 195° |
| 2026-05-05 18:05 | 55.62360 | 12.64434 | 23 ft | 3 kts | 196° |
| 2026-05-05 18:05 | 55.62351 | 12.64429 | 23 ft | 0 kts | 196° |
| 2026-05-05 18:06 | 55.62347 | 12.64427 | 23 ft | 3 kts | 196° |
| 2026-05-05 18:06 | 55.62271 | 12.64394 | 22 ft | 13 kts | 189° |
| 2026-05-05 18:06 | 55.62162 | 12.64423 | 24 ft | 19 kts | 169° |
| 2026-05-05 18:07 | 55.62018 | 12.64471 | 24 ft | 24 kts | 169° |
| 2026-05-05 18:07 | 55.61838 | 12.64531 | 24 ft | 28 kts | 169° |
| 2026-05-05 18:07 | 55.61672 | 12.64559 | 24 ft | 18 kts | 201° |
| 2026-05-05 18:07 | 55.61546 | 12.64416 | 26 ft | 25 kts | 213° |
| 2026-05-05 18:08 | 55.61382 | 12.64227 | 25 ft | 30 kts | 213° |
| 2026-05-05 18:08 | 55.61201 | 12.64020 | 25 ft | 31 kts | 213° |
| 2026-05-05 18:08 | 55.61019 | 12.63808 | 26 ft | 32 kts | 213° |
| 2026-05-05 18:08 | 55.60839 | 12.63604 | 24 ft | 32 kts | 213° |
| 2026-05-05 18:09 | 55.60650 | 12.63383 | 25 ft | 33 kts | 217° |
| 2026-05-05 18:09 | 55.60515 | 12.63221 | 24 ft | 16 kts | 177° |
| 2026-05-05 18:09 | 55.60430 | 12.63350 | 24 ft | 17 kts | 129° |
| 2026-05-05 18:09 | 55.60426 | 12.63479 | 26 ft | 12 kts | 43° |
| 2026-05-05 18:10 | 55.60581 | 12.63716 | 24 ft | 61 kts | 41° |
| 2026-05-05 18:10 | 55.61052 | 12.64448 | 23 ft | 117 kts | 41° |
| 2026-05-05 18:10 | 55.61782 | 12.65576 | 51 ft | 157 kts | 41° |
| 2026-05-05 18:10 | 55.62566 | 12.66844 | 699 ft | 149 kts | 38° |
| 2026-05-05 18:11 | 55.63350 | 12.68065 | 1300 ft | 153 kts | 39° |
| 2026-05-05 18:11 | 55.64194 | 12.69364 | 1574 ft | 174 kts | 40° |
| 2026-05-05 18:11 | 55.65182 | 12.70885 | 1810 ft | 198 kts | 39° |
| 2026-05-05 18:11 | 55.66283 | 12.72532 | 2172 ft | 221 kts | 38° |
| 2026-05-05 18:12 | 55.67529 | 12.74372 | 2586 ft | 246 kts | 38° |
| 2026-05-05 18:12 | 55.68909 | 12.76410 | 3008 ft | 270 kts | 38° |
| 2026-05-05 18:12 | 55.70407 | 12.78628 | 3544 ft | 287 kts | 39° |
| 2026-05-05 18:12 | 55.71954 | 12.80929 | 4344 ft | 293 kts | 39° |
| 2026-05-05 18:13 | 55.73529 | 12.83284 | 5147 ft | 299 kts | 39° |
| 2026-05-05 18:13 | 55.75127 | 12.85702 | 5958 ft | 304 kts | 40° |
| 2026-05-05 18:13 | 55.76733 | 12.88202 | 6690 ft | 311 kts | 40° |
| 2026-05-05 18:13 | 55.78370 | 12.90784 | 7362 ft | 318 kts | 40° |
| 2026-05-05 18:14 | 55.80044 | 12.93436 | 8026 ft | 326 kts | 40° |
| 2026-05-05 18:14 | 55.81752 | 12.96146 | 8708 ft | 333 kts | 39° |
| 2026-05-05 18:14 | 55.83495 | 12.98910 | 9412 ft | 339 kts | 39° |
| 2026-05-05 18:14 | 55.85276 | 13.01728 | 10070 ft | 345 kts | 39° |
| 2026-05-05 18:15 | 55.87122 | 13.04639 | 10335 ft | 364 kts | 39° |
| 2026-05-05 18:15 | 55.89049 | 13.07681 | 10816 ft | 374 kts | 39° |
| 2026-05-05 18:15 | 55.91006 | 13.10786 | 11420 ft | 379 kts | 39° |
| 2026-05-05 18:15 | 55.92962 | 13.13897 | 12002 ft | 384 kts | 39° |
| 2026-05-05 18:16 | 55.94968 | 13.17094 | 12614 ft | 389 kts | 39° |
| 2026-05-05 18:16 | 55.97004 | 13.20337 | 13226 ft | 394 kts | 38° |
| 2026-05-05 18:16 | 55.99065 | 13.23616 | 13825 ft | 399 kts | 38° |
| 2026-05-05 18:16 | 56.01149 | 13.26937 | 14371 ft | 404 kts | 38° |
| 2026-05-05 18:17 | 56.03253 | 13.30301 | 14901 ft | 408 kts | 38° |
| 2026-05-05 18:17 | 56.05378 | 13.33703 | 15432 ft | 412 kts | 38° |
| 2026-05-05 18:17 | 56.07525 | 13.37145 | 15963 ft | 417 kts | 38° |
| 2026-05-05 18:17 | 56.09695 | 13.40630 | 16514 ft | 421 kts | 38° |
| 2026-05-05 18:18 | 56.11884 | 13.44152 | 17098 ft | 425 kts | 39° |
| 2026-05-05 18:18 | 56.13961 | 13.47994 | 17632 ft | 433 kts | 45° |
| 2026-05-05 18:18 | 56.15982 | 13.52055 | 18192 ft | 438 kts | 45° |
| 2026-05-05 18:18 | 56.18018 | 13.56150 | 18702 ft | 442 kts | 45° |
| 2026-05-05 18:19 | 56.20051 | 13.60240 | 19199 ft | 446 kts | 45° |
| 2026-05-05 18:19 | 56.22120 | 13.64409 | 19708 ft | 449 kts | 45° |
| 2026-05-05 18:19 | 56.24206 | 13.68621 | 20195 ft | 453 kts | 45° |
| 2026-05-05 18:19 | 56.26307 | 13.72874 | 20681 ft | 456 kts | 45° |
| 2026-05-05 18:20 | 56.28421 | 13.77160 | 21145 ft | 459 kts | 45° |
| 2026-05-05 18:20 | 56.30548 | 13.81478 | 21586 ft | 463 kts | 45° |
| 2026-05-05 18:20 | 56.32690 | 13.85834 | 22012 ft | 466 kts | 45° |
| 2026-05-05 18:20 | 56.34844 | 13.90227 | 22433 ft | 470 kts | 45° |
| 2026-05-05 18:21 | 56.37018 | 13.94666 | 22764 ft | 474 kts | 45° |
| 2026-05-05 18:21 | 56.39204 | 13.99142 | 23171 ft | 477 kts | 45° |
| 2026-05-05 18:21 | 56.41404 | 14.03653 | 23549 ft | 480 kts | 45° |